sensor_id;sensor_type;location;lat;lon;timestamp;P1;durP1;ratioP1;P2;durP2;ratioP2
50906;SDS011;36882;27.680;85.304;2022-11-20T00:00:10;86.43;;;51.47;;
50906;SDS011;36882;27.680;85.304;2022-11-20T00:02:41;96.68;;;56.33;;
50906;SDS011;36882;27.680;85.304;2022-11-20T00:05:11;89.93;;;51.08;;
50906;SDS011;36882;27.680;85.304;2022-11-20T00:07:42;91.75;;;49.00;;
50906;SDS011;36882;27.680;85.304;2022-11-20T00:10:12;90.70;;;51.75;;
50906;SDS011;36882;27.680;85.304;2022-11-20T00:12:42;80.30;;;49.58;;
50906;SDS011;36882;27.680;85.304;2022-11-20T00:15:13;93.65;;;55.75;;
50906;SDS011;36882;27.680;85.304;2022-11-20T00:17:43;83.18;;;49.67;;
50906;SDS011;36882;27.680;85.304;2022-11-20T00:20:14;91.03;;;52.83;;
50906;SDS011;36882;27.680;85.304;2022-11-20T00:25:14;88.23;;;53.50;;
50906;SDS011;36882;27.680;85.304;2022-11-20T00:27:45;85.13;;;50.78;;
50906;SDS011;36882;27.680;85.304;2022-11-20T00:30:15;92.68;;;54.22;;
50906;SDS011;36882;27.680;85.304;2022-11-20T00:32:46;106.57;;;56.58;;
50906;SDS011;36882;27.680;85.304;2022-11-20T00:35:16;93.63;;;57.10;;
50906;SDS011;36882;27.680;85.304;2022-11-20T00:37:47;86.57;;;53.55;;
50906;SDS011;36882;27.680;85.304;2022-11-20T00:40:17;90.57;;;52.25;;
50906;SDS011;36882;27.680;85.304;2022-11-20T00:42:47;88.38;;;53.55;;
50906;SDS011;36882;27.680;85.304;2022-11-20T00:45:18;93.50;;;55.22;;
50906;SDS011;36882;27.680;85.304;2022-11-20T00:47:49;114.45;;;69.80;;
50906;SDS011;36882;27.680;85.304;2022-11-20T00:50:20;112.40;;;69.65;;
50906;SDS011;36882;27.680;85.304;2022-11-20T00:52:51;116.22;;;71.18;;
50906;SDS011;36882;27.680;85.304;2022-11-20T00:55:21;130.77;;;83.82;;
50906;SDS011;36882;27.680;85.304;2022-11-20T01:00:22;189.02;;;118.50;;
50906;SDS011;36882;27.680;85.304;2022-11-20T01:02:52;191.57;;;131.52;;
50906;SDS011;36882;27.680;85.304;2022-11-20T01:05:24;198.65;;;138.45;;
50906;SDS011;36882;27.680;85.304;2022-11-20T01:07:55;213.95;;;147.35;;
50906;SDS011;36882;27.680;85.304;2022-11-20T01:10:26;231.30;;;162.30;;
50906;SDS011;36882;27.680;85.304;2022-11-20T01:15:51;148.70;;;97.40;;
50906;SDS011;36882;27.680;85.304;2022-11-20T01:18:21;128.50;;;86.47;;
50906;SDS011;36882;27.680;85.304;2022-11-20T01:20:52;133.48;;;86.05;;
50906;SDS011;36882;27.680;85.304;2022-11-20T01:23:22;124.88;;;80.47;;
50906;SDS011;36882;27.680;85.304;2022-11-20T01:25:53;135.25;;;89.13;;
50906;SDS011;36882;27.680;85.304;2022-11-20T01:28:24;145.82;;;95.95;;
50906;SDS011;36882;27.680;85.304;2022-11-20T01:30:54;147.82;;;95.47;;
50906;SDS011;36882;27.680;85.304;2022-11-20T01:33:25;145.75;;;96.00;;
50906;SDS011;36882;27.680;85.304;2022-11-20T01:36:02;130.35;;;86.72;;
50906;SDS011;36882;27.680;85.304;2022-11-20T01:38:35;118.63;;;79.75;;
50906;SDS011;36882;27.680;85.304;2022-11-20T01:41:06;121.10;;;75.10;;
50906;SDS011;36882;27.680;85.304;2022-11-20T01:43:37;112.90;;;68.72;;
50906;SDS011;36882;27.680;85.304;2022-11-20T01:46:16;106.13;;;66.65;;
50906;SDS011;36882;27.680;85.304;2022-11-20T01:49:05;94.45;;;58.03;;
50906;SDS011;36882;27.680;85.304;2022-11-20T01:51:59;102.80;;;60.80;;
50906;SDS011;36882;27.680;85.304;2022-11-20T01:54:36;88.75;;;57.35;;
50906;SDS011;36882;27.680;85.304;2022-11-20T01:57:11;110.20;;;65.47;;
50906;SDS011;36882;27.680;85.304;2022-11-20T01:59:45;114.43;;;66.07;;
50906;SDS011;36882;27.680;85.304;2022-11-20T02:02:26;109.18;;;64.93;;
50906;SDS011;36882;27.680;85.304;2022-11-20T02:05:01;115.47;;;65.68;;
50906;SDS011;36882;27.680;85.304;2022-11-20T02:07:41;97.53;;;58.80;;
50906;SDS011;36882;27.680;85.304;2022-11-20T02:10:13;93.60;;;55.45;;
50906;SDS011;36882;27.680;85.304;2022-11-20T02:12:44;91.43;;;56.38;;
50906;SDS011;36882;27.680;85.304;2022-11-20T02:15:28;96.13;;;61.53;;
50906;SDS011;36882;27.680;85.304;2022-11-20T02:20:29;97.78;;;57.35;;
50906;SDS011;36882;27.680;85.304;2022-11-20T02:23:05;102.93;;;59.05;;
50906;SDS011;36882;27.680;85.304;2022-11-20T02:25:46;90.88;;;57.40;;
50906;SDS011;36882;27.680;85.304;2022-11-20T02:28:18;130.75;;;69.68;;
50906;SDS011;36882;27.680;85.304;2022-11-20T02:30:50;110.55;;;61.03;;
50906;SDS011;36882;27.680;85.304;2022-11-20T02:33:21;101.43;;;59.47;;
50906;SDS011;36882;27.680;85.304;2022-11-20T02:35:52;93.72;;;61.60;;
50906;SDS011;36882;27.680;85.304;2022-11-20T02:40:53;103.78;;;58.50;;
50906;SDS011;36882;27.680;85.304;2022-11-20T02:43:23;101.22;;;59.92;;
50906;SDS011;36882;27.680;85.304;2022-11-20T02:45:53;106.65;;;63.17;;
50906;SDS011;36882;27.680;85.304;2022-11-20T02:50:59;103.53;;;65.63;;
50906;SDS011;36882;27.680;85.304;2022-11-20T02:53:29;112.75;;;69.72;;
50906;SDS011;36882;27.680;85.304;2022-11-20T02:56:00;108.55;;;65.00;;
50906;SDS011;36882;27.680;85.304;2022-11-20T03:01:01;102.20;;;66.10;;
50906;SDS011;36882;27.680;85.304;2022-11-20T03:06:01;112.10;;;62.60;;
50906;SDS011;36882;27.680;85.304;2022-11-20T03:08:32;105.00;;;63.03;;
50906;SDS011;36882;27.680;85.304;2022-11-20T03:11:03;104.78;;;58.03;;
50906;SDS011;36882;27.680;85.304;2022-11-20T03:13:35;95.15;;;59.35;;
50906;SDS011;36882;27.680;85.304;2022-11-20T03:16:06;110.50;;;63.53;;
50906;SDS011;36882;27.680;85.304;2022-11-20T03:18:42;98.82;;;59.25;;
50906;SDS011;36882;27.680;85.304;2022-11-20T03:21:12;103.25;;;63.72;;
50906;SDS011;36882;27.680;85.304;2022-11-20T03:23:43;125.75;;;74.38;;
50906;SDS011;36882;27.680;85.304;2022-11-20T03:26:14;134.85;;;76.32;;
50906;SDS011;36882;27.680;85.304;2022-11-20T03:28:49;128.73;;;77.85;;
50906;SDS011;36882;27.680;85.304;2022-11-20T03:31:26;106.80;;;68.60;;
50906;SDS011;36882;27.680;85.304;2022-11-20T03:33:59;110.57;;;69.43;;
50906;SDS011;36882;27.680;85.304;2022-11-20T03:36:31;106.10;;;64.90;;
50906;SDS011;36882;27.680;85.304;2022-11-20T03:39:01;128.73;;;70.28;;
50906;SDS011;36882;27.680;85.304;2022-11-20T03:41:34;103.32;;;63.10;;
50906;SDS011;36882;27.680;85.304;2022-11-20T03:44:07;108.35;;;67.82;;
50906;SDS011;36882;27.680;85.304;2022-11-20T03:46:39;152.35;;;80.13;;
50906;SDS011;36882;27.680;85.304;2022-11-20T03:49:09;114.60;;;64.93;;
50906;SDS011;36882;27.680;85.304;2022-11-20T03:51:39;95.93;;;57.42;;
50906;SDS011;36882;27.680;85.304;2022-11-20T03:54:09;97.82;;;58.40;;
50906;SDS011;36882;27.680;85.304;2022-11-20T03:56:39;93.68;;;56.45;;
50906;SDS011;36882;27.680;85.304;2022-11-20T03:59:10;106.03;;;65.28;;
50906;SDS011;36882;27.680;85.304;2022-11-20T04:01:40;107.32;;;61.65;;
50906;SDS011;36882;27.680;85.304;2022-11-20T04:04:15;100.15;;;60.45;;
50906;SDS011;36882;27.680;85.304;2022-11-20T04:06:45;96.70;;;59.85;;
50906;SDS011;36882;27.680;85.304;2022-11-20T04:09:15;100.80;;;63.40;;
50906;SDS011;36882;27.680;85.304;2022-11-20T04:14:15;113.63;;;66.38;;
50906;SDS011;36882;27.680;85.304;2022-11-20T04:16:45;101.65;;;63.97;;
50906;SDS011;36882;27.680;85.304;2022-11-20T04:19:16;90.05;;;56.00;;
50906;SDS011;36882;27.680;85.304;2022-11-20T04:21:47;107.97;;;61.78;;
50906;SDS011;36882;27.680;85.304;2022-11-20T04:24:17;159.73;;;85.53;;
50906;SDS011;36882;27.680;85.304;2022-11-20T04:29:18;139.23;;;82.20;;
50906;SDS011;36882;27.680;85.304;2022-11-20T04:31:49;105.82;;;66.28;;
50906;SDS011;36882;27.680;85.304;2022-11-20T04:34:19;105.03;;;65.00;;
50906;SDS011;36882;27.680;85.304;2022-11-20T04:36:49;94.95;;;62.63;;
50906;SDS011;36882;27.680;85.304;2022-11-20T04:39:19;97.88;;;62.15;;
50906;SDS011;36882;27.680;85.304;2022-11-20T04:41:49;92.85;;;58.47;;
50906;SDS011;36882;27.680;85.304;2022-11-20T04:44:39;111.83;;;68.30;;
50906;SDS011;36882;27.680;85.304;2022-11-20T04:47:09;100.90;;;65.65;;
50906;SDS011;36882;27.680;85.304;2022-11-20T04:49:39;103.97;;;63.70;;
50906;SDS011;36882;27.680;85.304;2022-11-20T04:52:10;113.72;;;70.40;;
50906;SDS011;36882;27.680;85.304;2022-11-20T04:54:40;103.68;;;65.82;;
50906;SDS011;36882;27.680;85.304;2022-11-20T04:57:10;103.22;;;64.70;;
50906;SDS011;36882;27.680;85.304;2022-11-20T04:59:41;112.25;;;65.28;;
50906;SDS011;36882;27.680;85.304;2022-11-20T05:02:11;112.25;;;69.68;;
50906;SDS011;36882;27.680;85.304;2022-11-20T05:04:41;107.50;;;65.40;;
50906;SDS011;36882;27.680;85.304;2022-11-20T05:07:14;99.10;;;64.85;;
50906;SDS011;36882;27.680;85.304;2022-11-20T05:09:44;95.20;;;62.40;;
50906;SDS011;36882;27.680;85.304;2022-11-20T05:12:14;95.18;;;60.95;;
50906;SDS011;36882;27.680;85.304;2022-11-20T05:14:44;99.00;;;59.00;;
50906;SDS011;36882;27.680;85.304;2022-11-20T05:17:25;97.75;;;59.63;;
50906;SDS011;36882;27.680;85.304;2022-11-20T05:19:55;96.50;;;58.13;;
50906;SDS011;36882;27.680;85.304;2022-11-20T05:22:31;96.85;;;54.95;;
50906;SDS011;36882;27.680;85.304;2022-11-20T05:25:02;92.32;;;55.15;;
50906;SDS011;36882;27.680;85.304;2022-11-20T05:27:37;92.20;;;58.25;;
50906;SDS011;36882;27.680;85.304;2022-11-20T05:30:08;89.28;;;56.85;;
50906;SDS011;36882;27.680;85.304;2022-11-20T05:32:39;86.05;;;56.30;;
50906;SDS011;36882;27.680;85.304;2022-11-20T05:35:10;88.10;;;57.40;;
50906;SDS011;36882;27.680;85.304;2022-11-20T05:40:10;91.60;;;53.95;;
50906;SDS011;36882;27.680;85.304;2022-11-20T05:42:41;77.68;;;53.20;;
50906;SDS011;36882;27.680;85.304;2022-11-20T05:45:11;83.28;;;50.08;;
50906;SDS011;36882;27.680;85.304;2022-11-20T05:47:45;88.50;;;50.90;;
50906;SDS011;36882;27.680;85.304;2022-11-20T05:50:15;74.25;;;47.03;;
50906;SDS011;36882;27.680;85.304;2022-11-20T05:52:45;82.03;;;50.17;;
50906;SDS011;36882;27.680;85.304;2022-11-20T05:55:15;74.60;;;46.92;;
50906;SDS011;36882;27.680;85.304;2022-11-20T05:57:45;81.18;;;46.70;;
50906;SDS011;36882;27.680;85.304;2022-11-20T06:00:15;81.53;;;48.92;;
50906;SDS011;36882;27.680;85.304;2022-11-20T06:05:15;60.77;;;40.20;;
50906;SDS011;36882;27.680;85.304;2022-11-20T06:07:49;59.40;;;38.38;;
50906;SDS011;36882;27.680;85.304;2022-11-20T06:10:19;87.65;;;49.70;;
50906;SDS011;36882;27.680;85.304;2022-11-20T06:15:23;59.50;;;40.45;;
50906;SDS011;36882;27.680;85.304;2022-11-20T06:18:02;65.20;;;41.92;;
50906;SDS011;36882;27.680;85.304;2022-11-20T06:20:32;63.45;;;44.92;;
50906;SDS011;36882;27.680;85.304;2022-11-20T06:23:07;67.07;;;41.97;;
50906;SDS011;36882;27.680;85.304;2022-11-20T06:25:38;67.95;;;42.25;;
50906;SDS011;36882;27.680;85.304;2022-11-20T06:28:09;66.57;;;44.65;;
50906;SDS011;36882;27.680;85.304;2022-11-20T06:33:14;74.97;;;46.45;;
50906;SDS011;36882;27.680;85.304;2022-11-20T06:35:44;80.45;;;48.75;;
50906;SDS011;36882;27.680;85.304;2022-11-20T06:40:44;66.07;;;43.27;;
50906;SDS011;36882;27.680;85.304;2022-11-20T06:43:20;63.90;;;38.67;;
50906;SDS011;36882;27.680;85.304;2022-11-20T06:45:52;64.95;;;41.85;;
50906;SDS011;36882;27.680;85.304;2022-11-20T06:48:25;61.53;;;39.10;;
50906;SDS011;36882;27.680;85.304;2022-11-20T06:50:57;52.72;;;35.53;;
50906;SDS011;36882;27.680;85.304;2022-11-20T06:53:27;60.75;;;37.47;;
50906;SDS011;36882;27.680;85.304;2022-11-20T06:55:57;58.72;;;37.35;;
50906;SDS011;36882;27.680;85.304;2022-11-20T06:58:27;89.15;;;50.95;;
50906;SDS011;36882;27.680;85.304;2022-11-20T07:01:00;67.88;;;39.92;;
50906;SDS011;36882;27.680;85.304;2022-11-20T07:03:34;74.55;;;42.28;;
50906;SDS011;36882;27.680;85.304;2022-11-20T07:06:05;42.38;;;26.95;;
50906;SDS011;36882;27.680;85.304;2022-11-20T07:08:35;39.55;;;25.65;;
50906;SDS011;36882;27.680;85.304;2022-11-20T07:11:06;38.95;;;25.85;;
50906;SDS011;36882;27.680;85.304;2022-11-20T07:13:36;43.78;;;25.52;;
50906;SDS011;36882;27.680;85.304;2022-11-20T07:16:07;41.38;;;24.42;;
50906;SDS011;36882;27.680;85.304;2022-11-20T07:18:37;36.13;;;23.88;;
50906;SDS011;36882;27.680;85.304;2022-11-20T07:21:14;39.65;;;25.65;;
50906;SDS011;36882;27.680;85.304;2022-11-20T07:23:44;43.55;;;27.58;;
50906;SDS011;36882;27.680;85.304;2022-11-20T07:26:14;42.92;;;26.67;;
50906;SDS011;36882;27.680;85.304;2022-11-20T07:28:44;44.80;;;26.77;;
50906;SDS011;36882;27.680;85.304;2022-11-20T07:31:14;37.92;;;25.75;;
50906;SDS011;36882;27.680;85.304;2022-11-20T07:33:45;41.85;;;26.08;;
50906;SDS011;36882;27.680;85.304;2022-11-20T07:38:44;48.22;;;32.65;;
50906;SDS011;36882;27.680;85.304;2022-11-20T07:41:14;52.33;;;29.77;;
50906;SDS011;36882;27.680;85.304;2022-11-20T07:43:45;47.67;;;28.25;;
50906;SDS011;36882;27.680;85.304;2022-11-20T07:46:14;38.72;;;27.38;;
50906;SDS011;36882;27.680;85.304;2022-11-20T07:48:44;43.08;;;27.52;;
50906;SDS011;36882;27.680;85.304;2022-11-20T07:51:14;48.33;;;30.63;;
50906;SDS011;36882;27.680;85.304;2022-11-20T07:53:44;43.35;;;26.45;;
50906;SDS011;36882;27.680;85.304;2022-11-20T07:56:14;38.70;;;26.48;;
50906;SDS011;36882;27.680;85.304;2022-11-20T07:58:44;38.00;;;24.60;;
50906;SDS011;36882;27.680;85.304;2022-11-20T08:01:14;46.42;;;28.58;;
50906;SDS011;36882;27.680;85.304;2022-11-20T08:03:45;40.47;;;26.88;;
50906;SDS011;36882;27.680;85.304;2022-11-20T08:06:15;47.47;;;26.60;;
50906;SDS011;36882;27.680;85.304;2022-11-20T08:08:46;50.13;;;27.95;;
50906;SDS011;36882;27.680;85.304;2022-11-20T08:11:16;48.50;;;28.25;;
50906;SDS011;36882;27.680;85.304;2022-11-20T08:13:58;46.33;;;27.15;;
50906;SDS011;36882;27.680;85.304;2022-11-20T08:16:39;44.67;;;25.90;;
50906;SDS011;36882;27.680;85.304;2022-11-20T08:19:10;56.88;;;36.42;;
50906;SDS011;36882;27.680;85.304;2022-11-20T08:21:41;48.00;;;27.40;;
50906;SDS011;36882;27.680;85.304;2022-11-20T08:24:11;54.47;;;30.98;;
50906;SDS011;36882;27.680;85.304;2022-11-20T08:26:41;47.90;;;29.95;;
50906;SDS011;36882;27.680;85.304;2022-11-20T08:29:11;42.00;;;29.77;;
50906;SDS011;36882;27.680;85.304;2022-11-20T08:31:41;50.38;;;30.05;;
50906;SDS011;36882;27.680;85.304;2022-11-20T08:34:11;46.67;;;29.38;;
50906;SDS011;36882;27.680;85.304;2022-11-20T08:36:44;43.53;;;26.10;;
50906;SDS011;36882;27.680;85.304;2022-11-20T08:41:44;43.15;;;24.35;;
50906;SDS011;36882;27.680;85.304;2022-11-20T08:44:14;44.75;;;28.35;;
50906;SDS011;36882;27.680;85.304;2022-11-20T08:49:15;47.00;;;28.25;;
50906;SDS011;36882;27.680;85.304;2022-11-20T08:51:49;47.97;;;29.75;;
50906;SDS011;36882;27.680;85.304;2022-11-20T08:54:21;54.55;;;30.63;;
50906;SDS011;36882;27.680;85.304;2022-11-20T08:56:52;37.80;;;26.55;;
50906;SDS011;36882;27.680;85.304;2022-11-20T09:02:12;47.70;;;30.17;;
50906;SDS011;36882;27.680;85.304;2022-11-20T09:04:42;77.25;;;41.65;;
50906;SDS011;36882;27.680;85.304;2022-11-20T09:07:12;49.75;;;27.90;;
50906;SDS011;36882;27.680;85.304;2022-11-20T09:09:42;41.22;;;26.65;;
50906;SDS011;36882;27.680;85.304;2022-11-20T09:12:33;51.30;;;32.08;;
50906;SDS011;36882;27.680;85.304;2022-11-20T09:15:03;54.50;;;33.58;;
50906;SDS011;36882;27.680;85.304;2022-11-20T09:17:33;54.95;;;31.88;;
50906;SDS011;36882;27.680;85.304;2022-11-20T09:20:05;51.40;;;30.95;;
50906;SDS011;36882;27.680;85.304;2022-11-20T09:22:35;47.13;;;30.13;;
50906;SDS011;36882;27.680;85.304;2022-11-20T09:25:10;50.15;;;28.65;;
50906;SDS011;36882;27.680;85.304;2022-11-20T09:27:40;53.92;;;32.63;;
50906;SDS011;36882;27.680;85.304;2022-11-20T09:30:14;45.70;;;29.08;;
50906;SDS011;36882;27.680;85.304;2022-11-20T09:32:44;54.13;;;29.85;;
50906;SDS011;36882;27.680;85.304;2022-11-20T09:35:14;44.38;;;26.88;;
50906;SDS011;36882;27.680;85.304;2022-11-20T09:37:46;41.22;;;27.02;;
50906;SDS011;36882;27.680;85.304;2022-11-20T09:40:21;40.15;;;27.92;;
50906;SDS011;36882;27.680;85.304;2022-11-20T09:46:03;43.10;;;27.85;;
50906;SDS011;36882;27.680;85.304;2022-11-20T09:51:59;50.67;;;28.85;;
50906;SDS011;36882;27.680;85.304;2022-11-20T09:54:47;43.47;;;26.38;;
50906;SDS011;36882;27.680;85.304;2022-11-20T09:57:21;37.15;;;23.85;;
50906;SDS011;36882;27.680;85.304;2022-11-20T10:00:00;46.53;;;25.52;;
50906;SDS011;36882;27.680;85.304;2022-11-20T10:02:42;52.33;;;30.08;;
50906;SDS011;36882;27.680;85.304;2022-11-20T10:05:31;53.30;;;29.23;;
50906;SDS011;36882;27.680;85.304;2022-11-20T10:08:27;47.15;;;30.55;;
50906;SDS011;36882;27.680;85.304;2022-11-20T10:11:05;39.58;;;27.30;;
50906;SDS011;36882;27.680;85.304;2022-11-20T10:16:42;50.17;;;30.23;;
50906;SDS011;36882;27.680;85.304;2022-11-20T10:19:37;46.88;;;26.30;;
50906;SDS011;36882;27.680;85.304;2022-11-20T10:22:27;38.40;;;24.77;;
50906;SDS011;36882;27.680;85.304;2022-11-20T10:25:19;43.90;;;25.67;;
50906;SDS011;36882;27.680;85.304;2022-11-20T10:28:11;39.40;;;26.17;;
50906;SDS011;36882;27.680;85.304;2022-11-20T10:31:00;41.28;;;27.52;;
50906;SDS011;36882;27.680;85.304;2022-11-20T10:33:37;45.20;;;27.73;;
50906;SDS011;36882;27.680;85.304;2022-11-20T10:36:48;42.60;;;27.27;;
50906;SDS011;36882;27.680;85.304;2022-11-20T10:39:28;45.33;;;24.98;;
50906;SDS011;36882;27.680;85.304;2022-11-20T10:42:04;47.40;;;28.55;;
50906;SDS011;36882;27.680;85.304;2022-11-20T10:44:54;39.83;;;25.52;;
50906;SDS011;36882;27.680;85.304;2022-11-20T10:47:38;45.50;;;27.63;;
50906;SDS011;36882;27.680;85.304;2022-11-20T10:50:09;50.50;;;30.30;;
50906;SDS011;36882;27.680;85.304;2022-11-20T10:52:55;42.95;;;27.58;;
50906;SDS011;36882;27.680;85.304;2022-11-20T10:55:57;48.22;;;28.25;;
50906;SDS011;36882;27.680;85.304;2022-11-20T10:58:38;63.53;;;35.15;;
50906;SDS011;36882;27.680;85.304;2022-11-20T11:01:30;95.40;;;52.95;;
50906;SDS011;36882;27.680;85.304;2022-11-20T11:07:10;117.43;;;65.57;;
50906;SDS011;36882;27.680;85.304;2022-11-20T11:09:55;50.92;;;31.75;;
50906;SDS011;36882;27.680;85.304;2022-11-20T11:12:29;65.45;;;36.00;;
50906;SDS011;36882;27.680;85.304;2022-11-20T11:15:02;76.68;;;41.65;;
50906;SDS011;36882;27.680;85.304;2022-11-20T11:17:34;64.03;;;35.65;;
50906;SDS011;36882;27.680;85.304;2022-11-20T11:20:15;52.35;;;31.35;;
50906;SDS011;36882;27.680;85.304;2022-11-20T11:22:52;57.83;;;31.80;;
50906;SDS011;36882;27.680;85.304;2022-11-20T11:25:35;51.83;;;31.08;;
50906;SDS011;36882;27.680;85.304;2022-11-20T11:28:25;54.75;;;31.75;;
50906;SDS011;36882;27.680;85.304;2022-11-20T11:30:58;61.40;;;37.00;;
50906;SDS011;36882;27.680;85.304;2022-11-20T11:36:03;61.78;;;38.85;;
50906;SDS011;36882;27.680;85.304;2022-11-20T11:38:48;55.70;;;38.20;;
50906;SDS011;36882;27.680;85.304;2022-11-20T11:41:23;61.60;;;38.60;;
50906;SDS011;36882;27.680;85.304;2022-11-20T11:44:00;64.18;;;39.47;;
50906;SDS011;36882;27.680;85.304;2022-11-20T11:47:01;63.78;;;37.95;;
50906;SDS011;36882;27.680;85.304;2022-11-20T11:49:34;64.32;;;39.88;;
50906;SDS011;36882;27.680;85.304;2022-11-20T11:52:13;59.25;;;36.72;;
50906;SDS011;36882;27.680;85.304;2022-11-20T11:54:53;70.82;;;41.70;;
50906;SDS011;36882;27.680;85.304;2022-11-20T11:57:53;110.53;;;56.45;;
50906;SDS011;36882;27.680;85.304;2022-11-20T12:00:31;118.00;;;66.13;;
50906;SDS011;36882;27.680;85.304;2022-11-20T12:03:06;116.55;;;67.68;;
50906;SDS011;36882;27.680;85.304;2022-11-20T12:05:43;125.13;;;68.63;;
50906;SDS011;36882;27.680;85.304;2022-11-20T12:08:21;118.78;;;63.20;;
50906;SDS011;36882;27.680;85.304;2022-11-20T12:10:58;113.97;;;60.00;;
50906;SDS011;36882;27.680;85.304;2022-11-20T12:13:39;100.82;;;56.65;;
50906;SDS011;36882;27.680;85.304;2022-11-20T12:16:25;93.97;;;54.80;;
50906;SDS011;36882;27.680;85.304;2022-11-20T12:18:55;99.20;;;54.78;;
50906;SDS011;36882;27.680;85.304;2022-11-20T12:21:35;91.63;;;54.58;;
50906;SDS011;36882;27.680;85.304;2022-11-20T12:27:36;82.95;;;49.45;;
50906;SDS011;36882;27.680;85.304;2022-11-20T12:30:29;83.13;;;44.55;;
50906;SDS011;36882;27.680;85.304;2022-11-20T12:41:59;67.40;;;43.25;;
50906;SDS011;36882;27.680;85.304;2022-11-20T12:45:10;68.88;;;45.08;;
50906;SDS011;36882;27.680;85.304;2022-11-20T12:54:24;79.40;;;52.40;;
50906;SDS011;36882;27.680;85.304;2022-11-20T12:57:18;100.80;;;56.47;;
50906;SDS011;36882;27.680;85.304;2022-11-20T13:00:01;99.00;;;60.78;;
50906;SDS011;36882;27.680;85.304;2022-11-20T13:05:52;109.57;;;66.75;;
50906;SDS011;36882;27.680;85.304;2022-11-20T13:08:53;118.75;;;70.38;;
50906;SDS011;36882;27.680;85.304;2022-11-20T13:11:27;130.68;;;76.68;;
50906;SDS011;36882;27.680;85.304;2022-11-20T13:14:31;124.03;;;77.03;;
50906;SDS011;36882;27.680;85.304;2022-11-20T13:17:12;128.40;;;76.43;;
50906;SDS011;36882;27.680;85.304;2022-11-20T13:19:51;116.78;;;73.70;;
50906;SDS011;36882;27.680;85.304;2022-11-20T13:22:24;123.32;;;72.75;;
50906;SDS011;36882;27.680;85.304;2022-11-20T13:24:55;103.28;;;64.72;;
50906;SDS011;36882;27.680;85.304;2022-11-20T13:27:25;105.68;;;62.55;;
50906;SDS011;36882;27.680;85.304;2022-11-20T13:30:00;103.05;;;63.50;;
50906;SDS011;36882;27.680;85.304;2022-11-20T13:35:37;88.63;;;54.35;;
50906;SDS011;36882;27.680;85.304;2022-11-20T13:38:12;83.95;;;52.15;;
50906;SDS011;36882;27.680;85.304;2022-11-20T13:40:52;71.45;;;47.85;;
50906;SDS011;36882;27.680;85.304;2022-11-20T13:43:34;65.03;;;46.13;;
50906;SDS011;36882;27.680;85.304;2022-11-20T13:46:08;77.03;;;49.50;;
50906;SDS011;36882;27.680;85.304;2022-11-20T13:48:41;71.20;;;45.97;;
50906;SDS011;36882;27.680;85.304;2022-11-20T13:54:32;69.78;;;43.72;;
50906;SDS011;36882;27.680;85.304;2022-11-20T14:00:21;79.95;;;46.92;;
50906;SDS011;36882;27.680;85.304;2022-11-20T14:03:02;83.13;;;47.75;;
50906;SDS011;36882;27.680;85.304;2022-11-20T14:06:11;75.15;;;45.67;;
50906;SDS011;36882;27.680;85.304;2022-11-20T14:08:51;87.70;;;48.20;;
50906;SDS011;36882;27.680;85.304;2022-11-20T14:11:23;106.65;;;61.63;;
50906;SDS011;36882;27.680;85.304;2022-11-20T14:13:58;91.78;;;58.88;;
50906;SDS011;36882;27.680;85.304;2022-11-20T14:16:34;93.63;;;58.22;;
50906;SDS011;36882;27.680;85.304;2022-11-20T14:25:17;96.95;;;60.20;;
50906;SDS011;36882;27.680;85.304;2022-11-20T14:27:53;86.95;;;51.42;;
50906;SDS011;36882;27.680;85.304;2022-11-20T14:30:28;87.75;;;50.47;;
50906;SDS011;36882;27.680;85.304;2022-11-20T14:33:13;87.32;;;53.90;;
50906;SDS011;36882;27.680;85.304;2022-11-20T14:35:47;96.57;;;57.55;;
50906;SDS011;36882;27.680;85.304;2022-11-20T14:38:22;99.47;;;59.63;;
50906;SDS011;36882;27.680;85.304;2022-11-20T14:41:05;95.63;;;59.10;;
50906;SDS011;36882;27.680;85.304;2022-11-20T14:43:37;94.55;;;59.80;;
50906;SDS011;36882;27.680;85.304;2022-11-20T14:46:08;100.07;;;61.15;;
50906;SDS011;36882;27.680;85.304;2022-11-20T14:48:44;98.53;;;65.65;;
50906;SDS011;36882;27.680;85.304;2022-11-20T14:54:14;97.78;;;61.60;;
50906;SDS011;36882;27.680;85.304;2022-11-20T14:57:03;99.07;;;63.85;;
50906;SDS011;36882;27.680;85.304;2022-11-20T14:59:50;91.75;;;60.33;;
50906;SDS011;36882;27.680;85.304;2022-11-20T15:02:21;96.03;;;58.70;;
50906;SDS011;36882;27.680;85.304;2022-11-20T15:05:00;92.15;;;61.60;;
50906;SDS011;36882;27.680;85.304;2022-11-20T15:07:35;96.32;;;63.13;;
50906;SDS011;36882;27.680;85.304;2022-11-20T15:10:10;94.35;;;60.45;;
50906;SDS011;36882;27.680;85.304;2022-11-20T15:12:52;92.85;;;60.97;;
50906;SDS011;36882;27.680;85.304;2022-11-20T15:15:34;93.25;;;57.45;;
50906;SDS011;36882;27.680;85.304;2022-11-20T15:18:11;96.82;;;60.47;;
50906;SDS011;36882;27.680;85.304;2022-11-20T15:20:43;84.93;;;56.22;;
50906;SDS011;36882;27.680;85.304;2022-11-20T15:23:15;98.13;;;59.50;;
50906;SDS011;36882;27.680;85.304;2022-11-20T15:25:48;93.00;;;59.60;;
50906;SDS011;36882;27.680;85.304;2022-11-20T15:28:35;95.80;;;59.05;;
50906;SDS011;36882;27.680;85.304;2022-11-20T15:31:11;94.10;;;55.30;;
50906;SDS011;36882;27.680;85.304;2022-11-20T15:33:44;93.47;;;59.42;;
50906;SDS011;36882;27.680;85.304;2022-11-20T15:36:14;90.35;;;56.95;;
50906;SDS011;36882;27.680;85.304;2022-11-20T15:38:46;95.00;;;59.95;;
50906;SDS011;36882;27.680;85.304;2022-11-20T15:41:17;98.97;;;58.53;;
50906;SDS011;36882;27.680;85.304;2022-11-20T15:43:50;101.72;;;64.82;;
50906;SDS011;36882;27.680;85.304;2022-11-20T15:46:23;88.45;;;57.30;;
50906;SDS011;36882;27.680;85.304;2022-11-20T15:48:57;88.75;;;55.60;;
50906;SDS011;36882;27.680;85.304;2022-11-20T15:51:31;97.22;;;60.10;;
50906;SDS011;36882;27.680;85.304;2022-11-20T15:54:13;101.22;;;59.85;;
50906;SDS011;36882;27.680;85.304;2022-11-20T15:56:48;94.55;;;58.55;;
50906;SDS011;36882;27.680;85.304;2022-11-20T15:59:22;100.68;;;57.90;;
50906;SDS011;36882;27.680;85.304;2022-11-20T16:01:52;87.63;;;54.88;;
50906;SDS011;36882;27.680;85.304;2022-11-20T16:04:23;103.65;;;55.90;;
50906;SDS011;36882;27.680;85.304;2022-11-20T16:09:26;93.82;;;57.90;;
50906;SDS011;36882;27.680;85.304;2022-11-20T16:11:56;89.43;;;55.72;;
50906;SDS011;36882;27.680;85.304;2022-11-20T16:14:29;87.82;;;56.80;;
50906;SDS011;36882;27.680;85.304;2022-11-20T16:17:18;89.95;;;54.00;;
50906;SDS011;36882;27.680;85.304;2022-11-20T16:20:10;87.72;;;54.92;;
50906;SDS011;36882;27.680;85.304;2022-11-20T16:22:41;81.28;;;52.40;;
50906;SDS011;36882;27.680;85.304;2022-11-20T16:25:20;83.57;;;52.42;;
50906;SDS011;36882;27.680;85.304;2022-11-20T16:30:21;86.90;;;52.47;;
50906;SDS011;36882;27.680;85.304;2022-11-20T16:32:51;90.97;;;51.25;;
50906;SDS011;36882;27.680;85.304;2022-11-20T16:35:22;82.18;;;53.45;;
50906;SDS011;36882;27.680;85.304;2022-11-20T16:37:55;83.88;;;51.78;;